sensor_id;sensor_type;location;lat;lon;timestamp;P1;durP1;ratioP1;P2;durP2;ratioP2
52668;SDS011;59898;52.786;6.892;2023-08-24T00:01:01;7.25;;;4.47;;
52668;SDS011;59898;52.786;6.892;2023-08-24T00:04:22;6.57;;;4.25;;
52668;SDS011;59898;52.786;6.892;2023-08-24T00:07:42;10.05;;;4.53;;
52668;SDS011;59898;52.786;6.892;2023-08-24T00:11:03;9.05;;;5.60;;
52668;SDS011;59898;52.786;6.892;2023-08-24T00:14:24;9.15;;;4.68;;
52668;SDS011;59898;52.786;6.892;2023-08-24T00:17:44;7.78;;;4.65;;
52668;SDS011;59898;52.786;6.892;2023-08-24T00:21:05;7.55;;;5.10;;
52668;SDS011;59898;52.786;6.892;2023-08-24T00:24:27;11.43;;;4.90;;
52668;SDS011;59898;52.786;6.892;2023-08-24T00:27:49;7.22;;;6.13;;
52668;SDS011;59898;52.786;6.892;2023-08-24T00:31:09;6.78;;;5.05;;
52668;SDS011;59898;52.786;6.892;2023-08-24T00:34:30;10.60;;;5.32;;
52668;SDS011;59898;52.786;6.892;2023-08-24T00:37:51;10.32;;;7.20;;
52668;SDS011;59898;52.786;6.892;2023-08-24T00:41:12;10.75;;;6.35;;
52668;SDS011;59898;52.786;6.892;2023-08-24T00:44:32;8.02;;;6.70;;
52668;SDS011;59898;52.786;6.892;2023-08-24T00:47:53;13.52;;;7.95;;
52668;SDS011;59898;52.786;6.892;2023-08-24T00:51:14;13.32;;;7.47;;
52668;SDS011;59898;52.786;6.892;2023-08-24T00:54:35;8.30;;;6.97;;
52668;SDS011;59898;52.786;6.892;2023-08-24T00:57:57;7.90;;;6.97;;
52668;SDS011;59898;52.786;6.892;2023-08-24T01:01:18;9.75;;;6.80;;
52668;SDS011;59898;52.786;6.892;2023-08-24T01:04:42;12.23;;;7.25;;
52668;SDS011;59898;52.786;6.892;2023-08-24T01:08:03;8.55;;;6.57;;
52668;SDS011;59898;52.786;6.892;2023-08-24T01:15:37;11.65;;;6.53;;
52668;SDS011;59898;52.786;6.892;2023-08-24T01:19:01;9.68;;;7.82;;
52668;SDS011;59898;52.786;6.892;2023-08-24T01:26:01;8.60;;;6.10;;
52668;SDS011;59898;52.786;6.892;2023-08-24T01:29:28;11.73;;;8.27;;
52668;SDS011;59898;52.786;6.892;2023-08-24T01:32:49;11.93;;;6.85;;
52668;SDS011;59898;52.786;6.892;2023-08-24T01:36:10;12.05;;;7.55;;
52668;SDS011;59898;52.786;6.892;2023-08-24T01:39:40;12.15;;;8.57;;
52668;SDS011;59898;52.786;6.892;2023-08-24T01:43:05;10.80;;;7.25;;
52668;SDS011;59898;52.786;6.892;2023-08-24T01:46:29;9.98;;;8.07;;
52668;SDS011;59898;52.786;6.892;2023-08-24T01:49:52;12.75;;;7.85;;
52668;SDS011;59898;52.786;6.892;2023-08-24T01:53:13;12.10;;;8.35;;
52668;SDS011;59898;52.786;6.892;2023-08-24T01:56:33;14.70;;;8.07;;
52668;SDS011;59898;52.786;6.892;2023-08-24T01:59:54;13.20;;;9.98;;
52668;SDS011;59898;52.786;6.892;2023-08-24T02:03:14;12.35;;;8.35;;
52668;SDS011;59898;52.786;6.892;2023-08-24T02:06:35;14.05;;;8.65;;
52668;SDS011;59898;52.786;6.892;2023-08-24T02:09:56;11.52;;;8.23;;
52668;SDS011;59898;52.786;6.892;2023-08-24T02:13:16;15.10;;;10.18;;
52668;SDS011;59898;52.786;6.892;2023-08-24T02:16:37;12.05;;;8.88;;
52668;SDS011;59898;52.786;6.892;2023-08-24T02:19:57;11.68;;;9.20;;
52668;SDS011;59898;52.786;6.892;2023-08-24T02:23:18;14.32;;;9.85;;
52668;SDS011;59898;52.786;6.892;2023-08-24T02:26:38;14.77;;;9.52;;
52668;SDS011;59898;52.786;6.892;2023-08-24T02:29:59;12.82;;;10.13;;
52668;SDS011;59898;52.786;6.892;2023-08-24T02:33:20;11.90;;;8.75;;
52668;SDS011;59898;52.786;6.892;2023-08-24T02:36:41;14.40;;;9.38;;
52668;SDS011;59898;52.786;6.892;2023-08-24T02:40:01;13.07;;;8.75;;
52668;SDS011;59898;52.786;6.892;2023-08-24T02:43:22;13.13;;;9.15;;
52668;SDS011;59898;52.786;6.892;2023-08-24T02:46:47;10.70;;;8.52;;
52668;SDS011;59898;52.786;6.892;2023-08-24T02:50:08;10.43;;;8.32;;
52668;SDS011;59898;52.786;6.892;2023-08-24T02:53:29;13.68;;;9.02;;
52668;SDS011;59898;52.786;6.892;2023-08-24T02:56:50;14.48;;;9.10;;
52668;SDS011;59898;52.786;6.892;2023-08-24T03:00:11;10.23;;;8.30;;
52668;SDS011;59898;52.786;6.892;2023-08-24T03:03:34;10.35;;;8.60;;
52668;SDS011;59898;52.786;6.892;2023-08-24T03:06:55;11.77;;;8.25;;
52668;SDS011;59898;52.786;6.892;2023-08-24T03:10:16;13.00;;;8.55;;
52668;SDS011;59898;52.786;6.892;2023-08-24T03:13:37;12.38;;;8.02;;
52668;SDS011;59898;52.786;6.892;2023-08-24T03:16:58;10.75;;;7.43;;
52668;SDS011;59898;52.786;6.892;2023-08-24T03:20:19;9.50;;;7.15;;
52668;SDS011;59898;52.786;6.892;2023-08-24T03:23:39;8.82;;;6.88;;
52668;SDS011;59898;52.786;6.892;2023-08-24T03:27:00;9.73;;;8.38;;
52668;SDS011;59898;52.786;6.892;2023-08-24T03:30:21;11.82;;;6.60;;
52668;SDS011;59898;52.786;6.892;2023-08-24T03:33:42;8.93;;;6.93;;
52668;SDS011;59898;52.786;6.892;2023-08-24T03:37:03;11.75;;;8.80;;
52668;SDS011;59898;52.786;6.892;2023-08-24T03:40:23;9.80;;;8.13;;
52668;SDS011;59898;52.786;6.892;2023-08-24T03:43:44;9.90;;;7.07;;
52668;SDS011;59898;52.786;6.892;2023-08-24T03:47:05;9.80;;;7.40;;
52668;SDS011;59898;52.786;6.892;2023-08-24T03:50:25;9.48;;;7.15;;
52668;SDS011;59898;52.786;6.892;2023-08-24T03:53:46;8.70;;;7.57;;
52668;SDS011;59898;52.786;6.892;2023-08-24T03:57:06;9.55;;;6.10;;
52668;SDS011;59898;52.786;6.892;2023-08-24T04:00:27;9.93;;;7.30;;
52668;SDS011;59898;52.786;6.892;2023-08-24T04:03:47;14.48;;;7.53;;
52668;SDS011;59898;52.786;6.892;2023-08-24T04:07:08;8.88;;;7.18;;
52668;SDS011;59898;52.786;6.892;2023-08-24T04:10:29;9.52;;;6.82;;
52668;SDS011;59898;52.786;6.892;2023-08-24T04:13:50;10.40;;;6.85;;
52668;SDS011;59898;52.786;6.892;2023-08-24T04:17:10;9.35;;;7.05;;
52668;SDS011;59898;52.786;6.892;2023-08-24T04:20:31;13.75;;;6.88;;
52668;SDS011;59898;52.786;6.892;2023-08-24T04:23:51;8.52;;;6.80;;
52668;SDS011;59898;52.786;6.892;2023-08-24T04:27:12;8.30;;;7.53;;
52668;SDS011;59898;52.786;6.892;2023-08-24T04:30:33;12.38;;;7.05;;
52668;SDS011;59898;52.786;6.892;2023-08-24T04:33:53;10.90;;;6.88;;
52668;SDS011;59898;52.786;6.892;2023-08-24T04:37:14;12.57;;;6.05;;
52668;SDS011;59898;52.786;6.892;2023-08-24T04:40:53;7.70;;;5.53;;
52668;SDS011;59898;52.786;6.892;2023-08-24T04:44:15;8.88;;;6.07;;
52668;SDS011;59898;52.786;6.892;2023-08-24T04:47:36;11.23;;;6.53;;
52668;SDS011;59898;52.786;6.892;2023-08-24T04:50:56;13.50;;;7.13;;
52668;SDS011;59898;52.786;6.892;2023-08-24T04:54:17;9.60;;;7.18;;
52668;SDS011;59898;52.786;6.892;2023-08-24T04:57:38;7.30;;;5.30;;
52668;SDS011;59898;52.786;6.892;2023-08-24T05:00:59;8.05;;;5.88;;
52668;SDS011;59898;52.786;6.892;2023-08-24T05:04:19;11.50;;;8.07;;
52668;SDS011;59898;52.786;6.892;2023-08-24T05:07:40;8.70;;;6.45;;
52668;SDS011;59898;52.786;6.892;2023-08-24T05:11:01;9.20;;;5.80;;
52668;SDS011;59898;52.786;6.892;2023-08-24T05:14:21;6.68;;;5.95;;
52668;SDS011;59898;52.786;6.892;2023-08-24T05:17:42;12.57;;;6.55;;
52668;SDS011;59898;52.786;6.892;2023-08-24T05:21:03;11.23;;;7.00;;
52668;SDS011;59898;52.786;6.892;2023-08-24T05:24:23;11.23;;;5.82;;
52668;SDS011;59898;52.786;6.892;2023-08-24T05:27:44;12.75;;;6.43;;
52668;SDS011;59898;52.786;6.892;2023-08-24T05:31:05;12.88;;;5.88;;
52668;SDS011;59898;52.786;6.892;2023-08-24T05:34:25;7.78;;;5.97;;
52668;SDS011;59898;52.786;6.892;2023-08-24T05:37:46;9.25;;;5.03;;
52668;SDS011;59898;52.786;6.892;2023-08-24T05:41:06;8.50;;;5.45;;
52668;SDS011;59898;52.786;6.892;2023-08-24T05:44:27;8.88;;;5.53;;
52668;SDS011;59898;52.786;6.892;2023-08-24T05:47:47;11.77;;;4.63;;
52668;SDS011;59898;52.786;6.892;2023-08-24T05:51:08;8.63;;;5.20;;
52668;SDS011;59898;52.786;6.892;2023-08-24T05:54:30;8.73;;;5.10;;
52668;SDS011;59898;52.786;6.892;2023-08-24T05:57:50;8.60;;;5.53;;
52668;SDS011;59898;52.786;6.892;2023-08-24T06:01:11;6.88;;;5.60;;
52668;SDS011;59898;52.786;6.892;2023-08-24T06:04:31;9.77;;;5.82;;
52668;SDS011;59898;52.786;6.892;2023-08-24T06:07:52;9.57;;;6.18;;
52668;SDS011;59898;52.786;6.892;2023-08-24T06:11:12;10.57;;;6.25;;
52668;SDS011;59898;52.786;6.892;2023-08-24T06:14:33;8.55;;;7.07;;
52668;SDS011;59898;52.786;6.892;2023-08-24T06:17:53;8.85;;;6.78;;
52668;SDS011;59898;52.786;6.892;2023-08-24T06:21:14;10.82;;;7.30;;
52668;SDS011;59898;52.786;6.892;2023-08-24T06:24:35;14.73;;;8.63;;
52668;SDS011;59898;52.786;6.892;2023-08-24T06:27:55;12.88;;;7.70;;
52668;SDS011;59898;52.786;6.892;2023-08-24T06:31:16;13.52;;;9.43;;
52668;SDS011;59898;52.786;6.892;2023-08-24T06:34:36;13.18;;;8.15;;
52668;SDS011;59898;52.786;6.892;2023-08-24T06:37:57;15.93;;;8.75;;
52668;SDS011;59898;52.786;6.892;2023-08-24T06:41:19;17.70;;;10.82;;
52668;SDS011;59898;52.786;6.892;2023-08-24T06:44:39;14.50;;;9.33;;
52668;SDS011;59898;52.786;6.892;2023-08-24T06:48:00;13.50;;;10.68;;
52668;SDS011;59898;52.786;6.892;2023-08-24T06:51:20;15.02;;;10.07;;
52668;SDS011;59898;52.786;6.892;2023-08-24T06:54:41;15.25;;;10.93;;
52668;SDS011;59898;52.786;6.892;2023-08-24T06:58:02;17.15;;;10.30;;
52668;SDS011;59898;52.786;6.892;2023-08-24T07:01:25;13.60;;;9.68;;
52668;SDS011;59898;52.786;6.892;2023-08-24T07:04:45;17.98;;;11.38;;
52668;SDS011;59898;52.786;6.892;2023-08-24T07:08:06;15.15;;;10.63;;
52668;SDS011;59898;52.786;6.892;2023-08-24T07:11:27;13.50;;;10.32;;
52668;SDS011;59898;52.786;6.892;2023-08-24T07:14:47;14.10;;;10.30;;
52668;SDS011;59898;52.786;6.892;2023-08-24T07:18:08;12.85;;;10.20;;
52668;SDS011;59898;52.786;6.892;2023-08-24T07:21:29;14.60;;;10.40;;
52668;SDS011;59898;52.786;6.892;2023-08-24T07:24:50;14.52;;;9.63;;
52668;SDS011;59898;52.786;6.892;2023-08-24T07:28:12;12.60;;;10.40;;
52668;SDS011;59898;52.786;6.892;2023-08-24T07:31:32;15.23;;;11.45;;
52668;SDS011;59898;52.786;6.892;2023-08-24T07:34:53;15.48;;;9.65;;
52668;SDS011;59898;52.786;6.892;2023-08-24T07:38:14;19.30;;;10.13;;
52668;SDS011;59898;52.786;6.892;2023-08-24T07:41:34;13.35;;;9.75;;
52668;SDS011;59898;52.786;6.892;2023-08-24T07:44:55;12.88;;;9.77;;
52668;SDS011;59898;52.786;6.892;2023-08-24T07:48:15;16.55;;;10.10;;
52668;SDS011;59898;52.786;6.892;2023-08-24T07:51:36;13.25;;;9.43;;
52668;SDS011;59898;52.786;6.892;2023-08-24T07:54:57;12.40;;;8.88;;
52668;SDS011;59898;52.786;6.892;2023-08-24T07:58:19;16.95;;;9.90;;
52668;SDS011;59898;52.786;6.892;2023-08-24T08:01:40;15.55;;;9.82;;
52668;SDS011;59898;52.786;6.892;2023-08-24T08:05:01;12.95;;;10.82;;
52668;SDS011;59898;52.786;6.892;2023-08-24T08:08:21;15.48;;;10.65;;
52668;SDS011;59898;52.786;6.892;2023-08-24T08:11:42;13.48;;;10.82;;
52668;SDS011;59898;52.786;6.892;2023-08-24T08:15:03;16.10;;;9.65;;
52668;SDS011;59898;52.786;6.892;2023-08-24T08:18:24;15.63;;;10.27;;
52668;SDS011;59898;52.786;6.892;2023-08-24T08:21:44;13.73;;;9.98;;
52668;SDS011;59898;52.786;6.892;2023-08-24T08:25:05;11.57;;;8.68;;
52668;SDS011;59898;52.786;6.892;2023-08-24T08:28:26;10.40;;;7.97;;
52668;SDS011;59898;52.786;6.892;2023-08-24T08:31:47;10.50;;;7.93;;
52668;SDS011;59898;52.786;6.892;2023-08-24T08:35:08;12.15;;;9.45;;
52668;SDS011;59898;52.786;6.892;2023-08-24T08:38:28;11.00;;;8.95;;
52668;SDS011;59898;52.786;6.892;2023-08-24T08:41:49;13.75;;;8.65;;
52668;SDS011;59898;52.786;6.892;2023-08-24T08:45:10;9.65;;;7.38;;
52668;SDS011;59898;52.786;6.892;2023-08-24T08:48:31;10.82;;;7.85;;
52668;SDS011;59898;52.786;6.892;2023-08-24T08:51:53;8.65;;;7.05;;
52668;SDS011;59898;52.786;6.892;2023-08-24T08:55:14;12.35;;;7.78;;
52668;SDS011;59898;52.786;6.892;2023-08-24T08:58:36;8.68;;;7.40;;
52668;SDS011;59898;52.786;6.892;2023-08-24T09:01:57;9.97;;;7.83;;
52668;SDS011;59898;52.786;6.892;2023-08-24T09:05:18;9.50;;;7.32;;
52668;SDS011;59898;52.786;6.892;2023-08-24T09:08:40;12.00;;;7.30;;
52668;SDS011;59898;52.786;6.892;2023-08-24T09:12:00;17.65;;;8.02;;
52668;SDS011;59898;52.786;6.892;2023-08-24T09:15:26;10.75;;;7.32;;
52668;SDS011;59898;52.786;6.892;2023-08-24T09:18:47;11.50;;;7.78;;
52668;SDS011;59898;52.786;6.892;2023-08-24T09:22:07;10.57;;;7.45;;
52668;SDS011;59898;52.786;6.892;2023-08-24T09:25:28;12.68;;;6.85;;
52668;SDS011;59898;52.786;6.892;2023-08-24T09:28:49;11.05;;;7.50;;
52668;SDS011;59898;52.786;6.892;2023-08-24T09:32:09;12.18;;;7.05;;
52668;SDS011;59898;52.786;6.892;2023-08-24T09:35:34;12.45;;;8.05;;
52668;SDS011;59898;52.786;6.892;2023-08-24T09:38:56;11.07;;;6.80;;
52668;SDS011;59898;52.786;6.892;2023-08-24T09:45:51;28.05;;;7.45;;
52668;SDS011;59898;52.786;6.892;2023-08-24T09:49:15;10.63;;;7.28;;
52668;SDS011;59898;52.786;6.892;2023-08-24T09:52:36;8.25;;;6.60;;
52668;SDS011;59898;52.786;6.892;2023-08-24T09:56:00;8.30;;;7.38;;
52668;SDS011;59898;52.786;6.892;2023-08-24T09:59:21;10.27;;;7.90;;
52668;SDS011;59898;52.786;6.892;2023-08-24T10:06:10;10.38;;;8.07;;
52668;SDS011;59898;52.786;6.892;2023-08-24T10:09:38;15.57;;;9.30;;
52668;SDS011;59898;52.786;6.892;2023-08-24T10:13:07;12.40;;;7.28;;
52668;SDS011;59898;52.786;6.892;2023-08-24T10:16:32;8.68;;;7.18;;
52668;SDS011;59898;52.786;6.892;2023-08-24T10:19:55;12.68;;;8.27;;
52668;SDS011;59898;52.786;6.892;2023-08-24T10:23:18;10.75;;;7.03;;
52668;SDS011;59898;52.786;6.892;2023-08-24T10:26:40;14.77;;;9.27;;
52668;SDS011;59898;52.786;6.892;2023-08-24T10:30:01;8.27;;;6.35;;
52668;SDS011;59898;52.786;6.892;2023-08-24T10:33:22;8.52;;;7.57;;
52668;SDS011;59898;52.786;6.892;2023-08-24T10:36:43;13.23;;;8.35;;
52668;SDS011;59898;52.786;6.892;2023-08-24T10:40:07;11.30;;;8.27;;
52668;SDS011;59898;52.786;6.892;2023-08-24T10:43:37;15.23;;;10.15;;
52668;SDS011;59898;52.786;6.892;2023-08-24T10:47:14;13.15;;;9.30;;
52668;SDS011;59898;52.786;6.892;2023-08-24T10:50:38;13.40;;;8.40;;
52668;SDS011;59898;52.786;6.892;2023-08-24T10:53:59;11.52;;;8.65;;
52668;SDS011;59898;52.786;6.892;2023-08-24T11:00:50;10.38;;;6.85;;
52668;SDS011;59898;52.786;6.892;2023-08-24T11:04:10;12.27;;;8.55;;
52668;SDS011;59898;52.786;6.892;2023-08-24T11:07:32;12.55;;;8.60;;
52668;SDS011;59898;52.786;6.892;2023-08-24T11:10:52;12.63;;;7.47;;
52668;SDS011;59898;52.786;6.892;2023-08-24T11:14:17;13.52;;;9.02;;
52668;SDS011;59898;52.786;6.892;2023-08-24T11:18:10;14.10;;;7.95;;
52668;SDS011;59898;52.786;6.892;2023-08-24T11:21:33;13.38;;;8.65;;
52668;SDS011;59898;52.786;6.892;2023-08-24T11:24:54;10.15;;;7.38;;
52668;SDS011;59898;52.786;6.892;2023-08-24T11:28:18;14.48;;;8.15;;
52668;SDS011;59898;52.786;6.892;2023-08-24T11:31:39;9.27;;;8.35;;
52668;SDS011;59898;52.786;6.892;2023-08-24T11:35:00;12.45;;;8.60;;
52668;SDS011;59898;52.786;6.892;2023-08-24T11:38:21;12.68;;;7.32;;
52668;SDS011;59898;52.786;6.892;2023-08-24T11:41:41;10.90;;;7.22;;
52668;SDS011;59898;52.786;6.892;2023-08-24T11:45:02;10.05;;;7.40;;
52668;SDS011;59898;52.786;6.892;2023-08-24T11:48:32;8.95;;;7.63;;
52668;SDS011;59898;52.786;6.892;2023-08-24T11:51:53;11.32;;;7.78;;
52668;SDS011;59898;52.786;6.892;2023-08-24T11:55:14;8.77;;;7.72;;
52668;SDS011;59898;52.786;6.892;2023-08-24T11:58:34;9.85;;;6.90;;
52668;SDS011;59898;52.786;6.892;2023-08-24T12:02:00;11.85;;;7.70;;
52668;SDS011;59898;52.786;6.892;2023-08-24T12:05:22;10.20;;;6.53;;
52668;SDS011;59898;52.786;6.892;2023-08-24T12:08:46;12.38;;;7.18;;
52668;SDS011;59898;52.786;6.892;2023-08-24T12:12:14;10.27;;;6.90;;
52668;SDS011;59898;52.786;6.892;2023-08-24T12:15:35;12.18;;;7.60;;
52668;SDS011;59898;52.786;6.892;2023-08-24T12:18:57;11.15;;;7.63;;
52668;SDS011;59898;52.786;6.892;2023-08-24T12:22:23;13.30;;;8.20;;
52668;SDS011;59898;52.786;6.892;2023-08-24T12:25:44;9.68;;;7.32;;
52668;SDS011;59898;52.786;6.892;2023-08-24T12:29:05;8.80;;;6.72;;
52668;SDS011;59898;52.786;6.892;2023-08-24T12:32:41;11.82;;;7.68;;
52668;SDS011;59898;52.786;6.892;2023-08-24T12:36:03;10.55;;;7.85;;
52668;SDS011;59898;52.786;6.892;2023-08-24T12:39:24;11.15;;;7.88;;
52668;SDS011;59898;52.786;6.892;2023-08-24T12:42:44;10.88;;;7.85;;
52668;SDS011;59898;52.786;6.892;2023-08-24T12:46:05;11.25;;;8.27;;
52668;SDS011;59898;52.786;6.892;2023-08-24T12:49:25;12.32;;;8.38;;
52668;SDS011;59898;52.786;6.892;2023-08-24T12:52:46;10.48;;;6.88;;
52668;SDS011;59898;52.786;6.892;2023-08-24T12:56:06;11.23;;;7.45;;
52668;SDS011;59898;52.786;6.892;2023-08-24T12:59:27;11.98;;;7.55;;
52668;SDS011;59898;52.786;6.892;2023-08-24T13:02:48;9.32;;;7.85;;
52668;SDS011;59898;52.786;6.892;2023-08-24T13:06:09;13.50;;;9.15;;
52668;SDS011;59898;52.786;6.892;2023-08-24T13:09:29;9.70;;;7.10;;
52668;SDS011;59898;52.786;6.892;2023-08-24T13:12:50;10.40;;;8.25;;
52668;SDS011;59898;52.786;6.892;2023-08-24T13:16:11;13.77;;;7.45;;
52668;SDS011;59898;52.786;6.892;2023-08-24T13:19:31;9.02;;;6.72;;
52668;SDS011;59898;52.786;6.892;2023-08-24T13:22:52;12.00;;;7.20;;
52668;SDS011;59898;52.786;6.892;2023-08-24T13:26:20;9.38;;;6.65;;
52668;SDS011;59898;52.786;6.892;2023-08-24T13:29:41;11.48;;;7.00;;
52668;SDS011;59898;52.786;6.892;2023-08-24T13:33:02;9.27;;;6.80;;
52668;SDS011;59898;52.786;6.892;2023-08-24T13:36:23;14.55;;;7.63;;
52668;SDS011;59898;52.786;6.892;2023-08-24T13:39:44;8.77;;;5.78;;
52668;SDS011;59898;52.786;6.892;2023-08-24T13:43:04;9.07;;;6.70;;
52668;SDS011;59898;52.786;6.892;2023-08-24T13:46:25;8.90;;;6.28;;
52668;SDS011;59898;52.786;6.892;2023-08-24T13:49:46;9.00;;;5.85;;
52668;SDS011;59898;52.786;6.892;2023-08-24T13:53:06;9.32;;;6.10;;
52668;SDS011;59898;52.786;6.892;2023-08-24T13:56:27;7.28;;;6.47;;
52668;SDS011;59898;52.786;6.892;2023-08-24T13:59:47;11.30;;;7.22;;
52668;SDS011;59898;52.786;6.892;2023-08-24T14:03:08;8.48;;;6.10;;
52668;SDS011;59898;52.786;6.892;2023-08-24T14:06:29;12.23;;;6.43;;
52668;SDS011;59898;52.786;6.892;2023-08-24T14:09:50;9.17;;;6.50;;
52668;SDS011;59898;52.786;6.892;2023-08-24T14:13:11;8.93;;;6.82;;
52668;SDS011;59898;52.786;6.892;2023-08-24T14:16:32;7.40;;;6.00;;
52668;SDS011;59898;52.786;6.892;2023-08-24T14:19:52;9.80;;;6.43;;
52668;SDS011;59898;52.786;6.892;2023-08-24T14:23:13;9.35;;;5.88;;
52668;SDS011;59898;52.786;6.892;2023-08-24T14:26:33;8.93;;;7.03;;
52668;SDS011;59898;52.786;6.892;2023-08-24T14:29:54;8.65;;;6.13;;
52668;SDS011;59898;52.786;6.892;2023-08-24T14:33:14;8.50;;;5.32;;
52668;SDS011;59898;52.786;6.892;2023-08-24T14:36:35;7.38;;;5.57;;
52668;SDS011;59898;52.786;6.892;2023-08-24T14:39:56;7.35;;;5.88;;
52668;SDS011;59898;52.786;6.892;2023-08-24T14:43:18;8.95;;;5.80;;
52668;SDS011;59898;52.786;6.892;2023-08-24T14:46:38;13.20;;;6.15;;
52668;SDS011;59898;52.786;6.892;2023-08-24T14:49:59;9.30;;;6.50;;
52668;SDS011;59898;52.786;6.892;2023-08-24T14:53:19;7.47;;;5.75;;
52668;SDS011;59898;52.786;6.892;2023-08-24T14:56:40;7.78;;;5.88;;
52668;SDS011;59898;52.786;6.892;2023-08-24T15:00:01;9.35;;;5.85;;
52668;SDS011;59898;52.786;6.892;2023-08-24T15:06:44;13.02;;;6.60;;
52668;SDS011;59898;52.786;6.892;2023-08-24T15:10:05;13.60;;;6.88;;
52668;SDS011;59898;52.786;6.892;2023-08-24T15:13:26;9.48;;;6.45;;
52668;SDS011;59898;52.786;6.892;2023-08-24T15:16:48;11.25;;;6.68;;
52668;SDS011;59898;52.786;6.892;2023-08-24T15:20:09;8.95;;;6.45;;
52668;SDS011;59898;52.786;6.892;2023-08-24T15:23:32;8.20;;;6.20;;
52668;SDS011;59898;52.786;6.892;2023-08-24T15:26:53;8.85;;;6.20;;
52668;SDS011;59898;52.786;6.892;2023-08-24T15:30:14;12.25;;;6.05;;
52668;SDS011;59898;52.786;6.892;2023-08-24T15:33:34;11.35;;;6.68;;
52668;SDS011;59898;52.786;6.892;2023-08-24T15:36:55;13.07;;;8.13;;
52668;SDS011;59898;52.786;6.892;2023-08-24T15:40:15;9.75;;;6.80;;
52668;SDS011;59898;52.786;6.892;2023-08-24T15:43:36;9.30;;;6.53;;
52668;SDS011;59898;52.786;6.892;2023-08-24T15:46:57;11.80;;;6.60;;
52668;SDS011;59898;52.786;6.892;2023-08-24T15:50:18;10.40;;;6.80;;
52668;SDS011;59898;52.786;6.892;2023-08-24T15:53:38;12.98;;;7.97;;
52668;SDS011;59898;52.786;6.892;2023-08-24T15:56:59;11.25;;;6.40;;
52668;SDS011;59898;52.786;6.892;2023-08-24T16:00:19;12.93;;;8.32;;
52668;SDS011;59898;52.786;6.892;2023-08-24T16:03:40;10.07;;;8.30;;
52668;SDS011;59898;52.786;6.892;2023-08-24T16:07:02;11.87;;;8.17;;
52668;SDS011;59898;52.786;6.892;2023-08-24T16:10:22;16.35;;;9.80;;
52668;SDS011;59898;52.786;6.892;2023-08-24T16:13:43;9.88;;;7.70;;
52668;SDS011;59898;52.786;6.892;2023-08-24T16:17:04;13.18;;;9.32;;
52668;SDS011;59898;52.786;6.892;2023-08-24T16:20:24;10.77;;;8.80;;
52668;SDS011;59898;52.786;6.892;2023-08-24T16:23:45;12.73;;;9.65;;
52668;SDS011;59898;52.786;6.892;2023-08-24T16:27:05;10.95;;;8.68;;
52668;SDS011;59898;52.786;6.892;2023-08-24T16:30:26;12.80;;;10.18;;
52668;SDS011;59898;52.786;6.892;2023-08-24T16:33:47;19.00;;;8.48;;
52668;SDS011;59898;52.786;6.892;2023-08-24T16:37:07;10.10;;;7.45;;
52668;SDS011;59898;52.786;6.892;2023-08-24T16:40:28;10.85;;;7.70;;
52668;SDS011;59898;52.786;6.892;2023-08-24T16:43:48;15.40;;;8.73;;
52668;SDS011;59898;52.786;6.892;2023-08-24T16:47:09;8.88;;;6.65;;
52668;SDS011;59898;52.786;6.892;2023-08-24T16:50:29;10.98;;;7.70;;
52668;SDS011;59898;52.786;6.892;2023-08-24T16:53:50;10.15;;;6.57;;
52668;SDS011;59898;52.786;6.892;2023-08-24T16:57:11;10.60;;;7.65;;
52668;SDS011;59898;52.786;6.892;2023-08-24T17:00:32;7.85;;;7.05;;
52668;SDS011;59898;52.786;6.892;2023-08-24T17:03:52;10.07;;;6.57;;
52668;SDS011;59898;52.786;6.892;2023-08-24T17:07:13;15.95;;;7.00;;
52668;SDS011;59898;52.786;6.892;2023-08-24T17:10:34;11.75;;;7.05;;
52668;SDS011;59898;52.786;6.892;2023-08-24T17:13:55;13.07;;;6.65;;
52668;SDS011;59898;52.786;6.892;2023-08-24T17:17:16;6.90;;;6.15;;
52668;SDS011;59898;52.786;6.892;2023-08-24T17:20:37;10.00;;;6.93;;
52668;SDS011;59898;52.786;6.892;2023-08-24T17:23:58;12.57;;;7.37;;
52668;SDS011;59898;52.786;6.892;2023-08-24T17:27:19;12.38;;;8.05;;
52668;SDS011;59898;52.786;6.892;2023-08-24T17:30:44;10.00;;;7.18;;
52668;SDS011;59898;52.786;6.892;2023-08-24T17:34:05;12.18;;;7.15;;
52668;SDS011;59898;52.786;6.892;2023-08-24T17:37:26;9.57;;;6.93;;
52668;SDS011;59898;52.786;6.892;2023-08-24T17:40:46;11.48;;;9.30;;
52668;SDS011;59898;52.786;6.892;2023-08-24T17:44:07;9.63;;;8.10;;
52668;SDS011;59898;52.786;6.892;2023-08-24T17:47:28;10.52;;;8.38;;
52668;SDS011;59898;52.786;6.892;2023-08-24T17:50:55;11.32;;;8.30;;
52668;SDS011;59898;52.786;6.892;2023-08-24T17:54:17;11.35;;;9.45;;
52668;SDS011;59898;52.786;6.892;2023-08-24T17:57:38;13.07;;;10.48;;
52668;SDS011;59898;52.786;6.892;2023-08-24T18:00:58;18.15;;;11.38;;
52668;SDS011;59898;52.786;6.892;2023-08-24T18:04:19;14.00;;;10.48;;
52668;SDS011;59898;52.786;6.892;2023-08-24T18:07:39;13.43;;;11.77;;
52668;SDS011;59898;52.786;6.892;2023-08-24T18:11:03;16.83;;;11.50;;
52668;SDS011;59898;52.786;6.892;2023-08-24T18:14:24;12.43;;;10.60;;
52668;SDS011;59898;52.786;6.892;2023-08-24T18:17:45;15.50;;;10.13;;
52668;SDS011;59898;52.786;6.892;2023-08-24T18:21:06;14.95;;;10.77;;
52668;SDS011;59898;52.786;6.892;2023-08-24T18:24:27;15.82;;;12.35;;
52668;SDS011;59898;52.786;6.892;2023-08-24T18:27:48;19.23;;;11.80;;
52668;SDS011;59898;52.786;6.892;2023-08-24T18:31:09;17.57;;;11.17;;
52668;SDS011;59898;52.786;6.892;2023-08-24T18:34:30;11.73;;;10.55;;
52668;SDS011;59898;52.786;6.892;2023-08-24T18:37:51;17.00;;;11.25;;
52668;SDS011;59898;52.786;6.892;2023-08-24T18:41:12;11.02;;;9.88;;
52668;SDS011;59898;52.786;6.892;2023-08-24T18:44:33;15.77;;;11.30;;
52668;SDS011;59898;52.786;6.892;2023-08-24T18:47:53;17.08;;;9.75;;
52668;SDS011;59898;52.786;6.892;2023-08-24T18:51:14;13.18;;;9.00;;
52668;SDS011;59898;52.786;6.892;2023-08-24T18:54:34;12.80;;;8.65;;
52668;SDS011;59898;52.786;6.892;2023-08-24T18:57:55;11.13;;;8.90;;
52668;SDS011;59898;52.786;6.892;2023-08-24T19:01:16;9.57;;;8.43;;
52668;SDS011;59898;52.786;6.892;2023-08-24T19:04:37;11.45;;;8.93;;
52668;SDS011;59898;52.786;6.892;2023-08-24T19:07:58;10.40;;;8.45;;
52668;SDS011;59898;52.786;6.892;2023-08-24T19:11:19;8.88;;;7.22;;
52668;SDS011;59898;52.786;6.892;2023-08-24T19:14:39;8.57;;;7.65;;
52668;SDS011;59898;52.786;6.892;2023-08-24T19:18:00;12.73;;;7.55;;
52668;SDS011;59898;52.786;6.892;2023-08-24T19:21:21;10.88;;;7.40;;
52668;SDS011;59898;52.786;6.892;2023-08-24T19:24:45;9.90;;;6.95;;
52668;SDS011;59898;52.786;6.892;2023-08-24T19:28:06;8.05;;;6.30;;
52668;SDS011;59898;52.786;6.892;2023-08-24T19:31:27;12.30;;;6.90;;
52668;SDS011;59898;52.786;6.892;2023-08-24T19:34:48;9.55;;;6.85;;
52668;SDS011;59898;52.786;6.892;2023-08-24T19:38:08;12.63;;;7.55;;
52668;SDS011;59898;52.786;6.892;2023-08-24T19:41:29;10.07;;;6.30;;
52668;SDS011;59898;52.786;6.892;2023-08-24T19:44:49;11.13;;;6.90;;
52668;SDS011;59898;52.786;6.892;2023-08-24T19:48:10;9.27;;;6.95;;
52668;SDS011;59898;52.786;6.892;2023-08-24T19:51:31;9.35;;;6.38;;
52668;SDS011;59898;52.786;6.892;2023-08-24T19:54:52;9.93;;;7.60;;
52668;SDS011;59898;52.786;6.892;2023-08-24T19:58:12;10.18;;;7.38;;
52668;SDS011;59898;52.786;6.892;2023-08-24T20:01:33;11.55;;;7.10;;
52668;SDS011;59898;52.786;6.892;2023-08-24T20:04:56;8.45;;;6.88;;
52668;SDS011;59898;52.786;6.892;2023-08-24T20:08:17;12.75;;;7.80;;
52668;SDS011;59898;52.786;6.892;2023-08-24T20:11:39;9.30;;;7.22;;
52668;SDS011;59898;52.786;6.892;2023-08-24T20:14:59;10.65;;;7.15;;
52668;SDS011;59898;52.786;6.892;2023-08-24T20:18:20;8.63;;;7.72;;
52668;SDS011;59898;52.786;6.892;2023-08-24T20:21:41;9.15;;;7.65;;